Flight Track Log - Related Links

Times and Time Zones

All times are in EDT time to prevent confusion due to time zone crossing. See the ASQ4557 flight status page for this flight to view local times or setup timezone preferences in your user account.

Time Position Orientation Groundspeed Altitude Reporting Facility
EDT Latitude Longitude Course Direction KTS MPH feet Rate Location/Type
Sat 09:54:29 AM 29.9603 -95.3458 225° Southwest 149 171 700  Level Houston Center
Sat 09:55:18 AM 29.9344 -95.3758 331° Northwest 235 270 2,200 1,745 Climbing Houston Center
Sat 09:56:19 AM 29.9978 -95.4167 358° North 295 339 3,900 878 Climbing Houston Center
Sat 09:57:21 AM 30.0814 -95.4197 356° North 293 337 4,000 58 Climbing Houston Center
Sat 09:58:02 AM 30.1333 -95.4239 354° North 295 339 4,000 1,604 Level Houston Center
Sat 09:59:02 AM 30.2144 -95.4342 354° North 306 352 6,700 2,350 Climbing Houston Center
Sat 10:00:02 AM 30.2956 -95.4444 354° North 306 352 8,700 1,850 Climbing Houston Center
Sat 10:01:02 AM 30.3808 -95.4547 353° North 306 352 10,400 1,300 Climbing Houston Center
Sat 10:02:02 AM 30.4536 -95.4647 351° North 311 358 11,300 1,000 Climbing Houston Center
Sat 10:03:02 AM 30.5553 -95.4831 349° North 328 377 12,400 1,050 Climbing Houston Center
Sat 10:04:02 AM 30.6569 -95.5061 351° North 349 402 13,400 1,150 Climbing Houston Center
Sat 10:05:02 AM 30.7503 -95.5242 347° North 365 420 14,700 1,343 Climbing Houston Center
Sat 10:07:23 AM 31.0019 -95.5933 337° Northwest 372 428 17,900 1,343 Climbing Fort Worth Center
Sat 10:08:23 AM 31.1133 -95.6494 336° Northwest 392 451 19,200 1,050 Climbing Fort Worth Center
Sat 10:09:23 AM 31.2122 -95.7008 336° Northwest 392 451 20,000 400 Climbing Fort Worth Center
Sat 10:10:23 AM 31.3194 -95.7572 336° Northwest 407 468 20,000  Level Fort Worth Center
Sat 10:11:23 AM 31.4203 -95.8092 335° Northwest 423 487 20,000  Level Fort Worth Center
Sat 10:12:23 AM 31.5253 -95.8658 335° Northwest 429 494 20,000  Level Fort Worth Center
Sat 10:13:23 AM 31.6325 -95.9250 335° Northwest 414 476 20,000  Level Fort Worth Center
Sat 10:14:23 AM 31.7397 -95.9844 335° Northwest 414 476 20,000 -450 Level Fort Worth Center
Sat 10:15:23 AM 31.8447 -96.0414 334° Northwest 417 480 19,100 -1,750 Descending Fort Worth Center
Sat 10:16:23 AM 31.9456 -96.0986 337° Northwest 399 459 16,500 -2,750 Descending Fort Worth Center
Sat 10:17:23 AM 32.0464 -96.1486 334° Northwest 370 426 13,600 -2,650 Descending Fort Worth Center
Sat 10:18:23 AM 32.1344 -96.1989 342° North 353 406 11,200 -2,165 Descending Fort Worth Center
Sat 10:19:00 AM 32.1847 -96.2181 335° Northwest 315 362 10,100 -1,403 Descending FAA TRACON SMA TRACON (SMA)
Sat 10:19:40 AM 32.2317 -96.2442 334° Northwest 302 348 9,400 -825 Descending FAA TRACON SMA TRACON (SMA)
Sat 10:20:20 AM 32.2825 -96.2733 336° Northwest 291 335 9,000 -296 Descending FAA TRACON SMA TRACON (SMA)
Sat 10:21:01 AM 32.3336 -96.3008 333° Northwest 289 333 9,000  Level FAA TRACON SMA TRACON (SMA)
Sat 10:21:40 AM 32.3836 -96.3311 335° Northwest 293 337 9,000  Level FAA TRACON SMA TRACON (SMA)
Sat 10:22:19 AM 32.4294 -96.3567 333° Northwest 296 341 9,000  Level FAA TRACON SMA TRACON (SMA)
Sat 10:22:59 AM 32.4803 -96.3869 332° Northwest 297 342 9,000 -75 Level FAA TRACON SMA TRACON (SMA)
Sat 10:23:39 AM 32.5233 -96.4139 332° Northwest 288 331 8,900 -815 Descending FAA TRACON SMA TRACON (SMA)
Sat 10:24:20 AM 32.5708 -96.4433 332° Northwest 277 319 7,900 -1,500 Descending FAA TRACON SMA TRACON (SMA)
Sat 10:24:59 AM 32.6156 -96.4714 333° Northwest 261 300 6,900 -1,425 Descending FAA TRACON SMA TRACON (SMA)
Sat 10:25:40 AM 32.6547 -96.4950 325° Northwest 256 295 6,000 -1,259 Descending FAA TRACON SMA TRACON (SMA)
Sat 10:26:20 AM 32.6936 -96.5272 318° Northwest 250 288 5,200 -759 Descending FAA TRACON SMA TRACON (SMA)
Sat 10:26:59 AM 32.7303 -96.5669 316° Northwest 256 295 5,000 -525 Descending FAA TRACON SMA TRACON (SMA)
Sat 10:27:40 AM 32.7611 -96.6025 319° Northwest 252 290 4,500 -750 Descending FAA TRACON SMA TRACON (SMA)
Sat 10:28:19 AM 32.7981 -96.6406 320° Northwest 255 293 4,000 -380 Descending FAA TRACON SMA TRACON (SMA)
Sat 10:28:59 AM 32.8356 -96.6786 320° Northwest 255 293 4,000 -300 Level FAA TRACON SMA TRACON (SMA)
Sat 10:29:39 AM 32.8667 -96.7092 317° Northwest 237 273 3,600 -750 Descending FAA TRACON SMA TRACON (SMA)
Sat 10:30:19 AM 32.9011 -96.7472 318° Northwest 244 281 3,000 -450 Descending FAA TRACON SMA TRACON (SMA)
Sat 10:30:59 AM 32.9347 -96.7839 317° Northwest 240 276 3,000  Level FAA TRACON SMA TRACON (SMA)
Sat 10:31:40 AM 32.9642 -96.8169 290° West 238 274 3,000  Level FAA TRACON SMA TRACON (SMA)
Sat 10:32:19 AM 32.9786 -96.8650 275° West 225 259 3,000 -300 Level FAA TRACON SMA TRACON (SMA)
Sat 10:33:00 AM 32.9814 -96.9053 214° Southwest 197 227 2,600 -741 Descending FAA TRACON SMA TRACON (SMA)
Sat 10:33:40 AM 32.9572 -96.9244 186° South 171 197 2,000 -450 Descending FAA TRACON SMA TRACON (SMA)
Sat 10:34:20 AM 32.9286 -96.9278 152° Southeast 168 193 2,000 -150 Level FAA TRACON SMA TRACON (SMA)
Sat 10:35:00 AM 32.9036 -96.9119 150° Southeast 138 159 1,800 -450 Descending FAA TRACON SMA TRACON (SMA)
Sat 10:35:40 AM 32.8836 -96.8983 136° Southeast 137 158 1,400 -675 Descending FAA TRACON SMA TRACON (SMA)
Sat 10:36:20 AM 32.8647 -96.8769 136° Southeast 139 160 900 -750 Descending FAA TRACON SMA TRACON (SMA)

Login

Don't have an account? Register now (free) for customized features, flight alerts, and more!